sensor_id;sensor_type;location;lat;lon;timestamp;pressure;altitude;pressure_sealevel;temperature;humidity
77739;BME280;66904;59.926;30.404;2023-03-11T00:04:34;100702.97;;;25.25;18.98
77739;BME280;66904;59.926;30.404;2023-03-11T00:09:44;100717.75;;;25.23;19.26
77739;BME280;66904;59.926;30.404;2023-03-11T00:14:44;100717.75;;;25.23;19.24
77739;BME280;66904;59.926;30.404;2023-03-11T00:19:45;100709.44;;;25.24;19.18
77739;BME280;66904;59.926;30.404;2023-03-11T00:24:45;100705.03;;;25.23;19.17
77739;BME280;66904;59.926;30.404;2023-03-11T00:29:55;100696.09;;;25.23;19.15
77739;BME280;66904;59.926;30.404;2023-03-11T00:35:05;100698.19;;;25.20;19.18
77739;BME280;66904;59.926;30.404;2023-03-11T00:40:13;100702.56;;;25.22;19.27
77739;BME280;66904;59.926;30.404;2023-03-11T00:51:06;100705.03;;;25.23;19.16
77739;BME280;66904;59.926;30.404;2023-03-11T00:56:12;100696.91;;;25.23;18.81
77739;BME280;66904;59.926;30.404;2023-03-11T01:01:18;100695.06;;;25.24;19.09
77739;BME280;66904;59.926;30.404;2023-03-11T01:06:31;100693.38;;;25.23;19.23
77739;BME280;66904;59.926;30.404;2023-03-11T01:11:31;100695.06;;;25.24;19.16
77739;BME280;66904;59.926;30.404;2023-03-11T01:16:35;100687.75;;;25.24;19.14
77739;BME280;66904;59.926;30.404;2023-03-11T01:21:50;100681.50;;;25.24;19.05
77739;BME280;66904;59.926;30.404;2023-03-11T01:27:09;100685.91;;;25.25;19.06
77739;BME280;66904;59.926;30.404;2023-03-11T01:32:10;100689.44;;;25.25;19.12
77739;BME280;66904;59.926;30.404;2023-03-11T01:37:10;100677.78;;;25.25;18.97
77739;BME280;66904;59.926;30.404;2023-03-11T01:42:11;100680.47;;;25.25;19.26
77739;BME280;66904;59.926;30.404;2023-03-11T01:52:22;100685.06;;;25.24;18.73
77739;BME280;66904;59.926;30.404;2023-03-11T01:57:22;100677.97;;;25.23;19.29
77739;BME280;66904;59.926;30.404;2023-03-11T02:02:31;100679.03;;;25.22;18.93
77739;BME280;66904;59.926;30.404;2023-03-11T02:07:52;100673.38;;;25.24;18.45
77739;BME280;66904;59.926;30.404;2023-03-11T02:13:01;100664.25;;;25.18;18.91
77739;BME280;66904;59.926;30.404;2023-03-11T02:18:04;100660.09;;;25.15;18.50
77739;BME280;66904;59.926;30.404;2023-03-11T02:29:04;100663.19;;;25.12;18.57
77739;BME280;66904;59.926;30.404;2023-03-11T02:34:10;100667.56;;;25.13;18.43
77739;BME280;66904;59.926;30.404;2023-03-11T02:45:13;100654.88;;;25.07;18.60
77739;BME280;66904;59.926;30.404;2023-03-11T02:50:15;100650.91;;;25.10;18.77
77739;BME280;66904;59.926;30.404;2023-03-11T03:12:51;100642.78;;;25.10;18.82
77739;BME280;66904;59.926;30.404;2023-03-11T03:17:51;100641.75;;;25.11;18.72
77739;BME280;66904;59.926;30.404;2023-03-11T03:23:13;100636.94;;;25.13;18.40
77739;BME280;66904;59.926;30.404;2023-03-11T03:28:17;100629.03;;;25.11;18.59
77739;BME280;66904;59.926;30.404;2023-03-11T03:33:17;100620.09;;;25.11;18.62
77739;BME280;66904;59.926;30.404;2023-03-11T03:38:39;100617.16;;;25.12;18.42
77739;BME280;66904;59.926;30.404;2023-03-11T03:43:54;100617.97;;;25.19;18.46
77739;BME280;66904;59.926;30.404;2023-03-11T03:48:55;100613.63;;;25.12;18.62
77739;BME280;66904;59.926;30.404;2023-03-11T03:53:56;100599.25;;;25.11;18.67
77739;BME280;66904;59.926;30.404;2023-03-11T03:59:27;100600.91;;;25.12;18.39
77739;BME280;66904;59.926;30.404;2023-03-11T04:04:27;100593.44;;;25.08;19.03
77739;BME280;66904;59.926;30.404;2023-03-11T04:09:28;100605.31;;;25.07;18.47
77739;BME280;66904;59.926;30.404;2023-03-11T04:14:28;100596.34;;;25.06;18.45
77739;BME280;66904;59.926;30.404;2023-03-11T04:25:07;100593.44;;;25.01;18.34
77739;BME280;66904;59.926;30.404;2023-03-11T04:30:14;100590.09;;;24.99;18.30
77739;BME280;66904;59.926;30.404;2023-03-11T04:41:35;100591.59;;;24.95;18.38
77739;BME280;66904;59.926;30.404;2023-03-11T04:46:51;100578.88;;;24.89;18.24
77739;BME280;66904;59.926;30.404;2023-03-11T04:51:52;100578.69;;;24.91;17.89
77739;BME280;66904;59.926;30.404;2023-03-11T04:56:52;100584.09;;;24.91;17.88
77739;BME280;66904;59.926;30.404;2023-03-11T05:01:53;100587.00;;;24.89;18.22
77739;BME280;66904;59.926;30.404;2023-03-11T05:06:53;100577.22;;;24.88;17.88
77739;BME280;66904;59.926;30.404;2023-03-11T05:11:54;100590.13;;;24.86;17.83
77739;BME280;66904;59.926;30.404;2023-03-11T05:17:13;100586.38;;;24.87;17.54
77739;BME280;66904;59.926;30.404;2023-03-11T05:28:20;100549.94;;;24.90;17.27
77739;BME280;66904;59.926;30.404;2023-03-11T05:33:21;100556.00;;;24.92;17.65
77739;BME280;66904;59.926;30.404;2023-03-11T05:38:21;100549.91;;;24.96;17.21
77739;BME280;66904;59.926;30.404;2023-03-11T05:43:22;100535.75;;;25.01;17.55
77739;BME280;66904;59.926;30.404;2023-03-11T05:48:22;100527.41;;;25.02;17.80
77739;BME280;66904;59.926;30.404;2023-03-11T05:53:23;100514.53;;;25.04;16.97
77739;BME280;66904;59.926;30.404;2023-03-11T05:58:24;100506.59;;;25.03;17.38
77739;BME280;66904;59.926;30.404;2023-03-11T06:03:25;100508.69;;;25.07;17.04
77739;BME280;66904;59.926;30.404;2023-03-11T06:08:25;100496.19;;;25.06;17.35
77739;BME280;66904;59.926;30.404;2023-03-11T06:13:26;100494.56;;;24.92;17.50
77739;BME280;66904;59.926;30.404;2023-03-11T06:18:27;100496.88;;;24.76;17.82
77739;BME280;66904;59.926;30.404;2023-03-11T06:23:28;100495.81;;;24.70;18.04
77739;BME280;66904;59.926;30.404;2023-03-11T06:28:30;100495.81;;;24.70;18.19
77739;BME280;66904;59.926;30.404;2023-03-11T06:33:31;100491.25;;;24.70;18.36
77739;BME280;66904;59.926;30.404;2023-03-11T06:38:32;100476.88;;;24.77;18.79
77739;BME280;66904;59.926;30.404;2023-03-11T06:43:34;100475.84;;;24.78;18.44
77739;BME280;66904;59.926;30.404;2023-03-11T06:48:35;100459.19;;;24.74;18.63
77739;BME280;66904;59.926;30.404;2023-03-11T06:53:36;100454.81;;;24.66;18.63
77739;BME280;66904;59.926;30.404;2023-03-11T06:58:37;100457.13;;;24.63;18.53
77739;BME280;66904;59.926;30.404;2023-03-11T07:03:39;100453.41;;;24.57;18.50
77739;BME280;66904;59.926;30.404;2023-03-11T07:08:39;100433.22;;;24.53;18.52
77739;BME280;66904;59.926;30.404;2023-03-11T07:13:41;100428.63;;;24.54;18.85
77739;BME280;66904;59.926;30.404;2023-03-11T07:18:42;100401.84;;;24.46;19.80
77739;BME280;66904;59.926;30.404;2023-03-11T07:23:43;100403.88;;;24.50;19.69
77739;BME280;66904;59.926;30.404;2023-03-11T07:33:46;100392.44;;;24.55;19.71
77739;BME280;66904;59.926;30.404;2023-03-11T07:38:47;100379.53;;;24.57;19.88
77739;BME280;66904;59.926;30.404;2023-03-11T07:43:48;100374.75;;;24.59;20.10
77739;BME280;66904;59.926;30.404;2023-03-11T07:48:49;100368.06;;;24.61;19.96
77739;BME280;66904;59.926;30.404;2023-03-11T07:53:52;100361.41;;;24.64;20.08
77739;BME280;66904;59.926;30.404;2023-03-11T07:58:53;100356.19;;;24.69;19.87
77739;BME280;66904;59.926;30.404;2023-03-11T08:03:54;100342.84;;;24.74;19.92
77739;BME280;66904;59.926;30.404;2023-03-11T08:08:58;100331.81;;;24.76;20.24
77739;BME280;66904;59.926;30.404;2023-03-11T08:14:00;100316.38;;;24.76;20.22
77739;BME280;66904;59.926;30.404;2023-03-11T08:19:02;100305.75;;;24.88;20.19
77739;BME280;66904;59.926;30.404;2023-03-11T08:24:02;100296.78;;;24.94;20.55
77739;BME280;66904;59.926;30.404;2023-03-11T08:29:03;100283.78;;;25.02;20.46
77739;BME280;66904;59.926;30.404;2023-03-11T08:34:07;100274.97;;;25.13;20.36
77739;BME280;66904;59.926;30.404;2023-03-11T08:39:08;100267.81;;;25.26;20.25
77739;BME280;66904;59.926;30.404;2023-03-11T08:44:08;100244.94;;;25.22;20.15
77739;BME280;66904;59.926;30.404;2023-03-11T08:49:09;100249.59;;;25.14;20.16
77739;BME280;66904;59.926;30.404;2023-03-11T08:54:09;100228.56;;;25.10;19.93
77739;BME280;66904;59.926;30.404;2023-03-11T08:59:10;100216.75;;;25.04;20.16
77739;BME280;66904;59.926;30.404;2023-03-11T09:04:11;100206.13;;;25.03;19.83
77739;BME280;66904;59.926;30.404;2023-03-11T09:09:12;100182.84;;;25.02;19.90
77739;BME280;66904;59.926;30.404;2023-03-11T09:14:12;100168.47;;;25.01;19.56
77739;BME280;66904;59.926;30.404;2023-03-11T09:19:13;100164.69;;;25.02;19.59
77739;BME280;66904;59.926;30.404;2023-03-11T09:24:14;100143.50;;;24.99;19.46
77739;BME280;66904;59.926;30.404;2023-03-11T09:29:14;100122.13;;;24.91;19.60
77739;BME280;66904;59.926;30.404;2023-03-11T09:34:15;100119.81;;;24.95;19.47
77739;BME280;66904;59.926;30.404;2023-03-11T09:39:15;100090.69;;;24.90;19.52
77739;BME280;66904;59.926;30.404;2023-03-11T09:54:40;100061.56;;;24.92;19.56
77739;BME280;66904;59.926;30.404;2023-03-11T09:59:41;100052.59;;;24.92;20.10
77739;BME280;66904;59.926;30.404;2023-03-11T10:09:56;100018.09;;;24.87;20.60
77739;BME280;66904;59.926;30.404;2023-03-11T10:26:14;99966.16;;;25.15;21.47
77739;BME280;66904;59.926;30.404;2023-03-11T10:31:49;99951.09;;;25.19;21.50
77739;BME280;66904;59.926;30.404;2023-03-11T10:37:04;99951.69;;;25.21;21.75
77739;BME280;66904;59.926;30.404;2023-03-11T10:42:24;99948.75;;;25.23;21.68
77739;BME280;66904;59.926;30.404;2023-03-11T10:47:28;99937.13;;;25.22;21.55
77739;BME280;66904;59.926;30.404;2023-03-11T10:52:28;99913.09;;;25.26;21.81
77739;BME280;66904;59.926;30.404;2023-03-11T10:57:34;99897.47;;;25.28;22.80
77739;BME280;66904;59.926;30.404;2023-03-11T11:07:41;99870.75;;;25.31;22.10
77739;BME280;66904;59.926;30.404;2023-03-11T11:12:59;99862.75;;;25.36;22.67
77739;BME280;66904;59.926;30.404;2023-03-11T11:18:17;99832.13;;;25.36;22.15
77739;BME280;66904;59.926;30.404;2023-03-11T11:28:37;99782.97;;;25.39;21.90
77739;BME280;66904;59.926;30.404;2023-03-11T11:33:39;99752.41;;;25.20;21.83
77739;BME280;66904;59.926;30.404;2023-03-11T11:38:48;99755.38;;;25.18;21.36
77739;BME280;66904;59.926;30.404;2023-03-11T11:43:58;99748.81;;;24.96;20.28
77739;BME280;66904;59.926;30.404;2023-03-11T11:49:19;99708.56;;;24.88;20.00
77739;BME280;66904;59.926;30.404;2023-03-11T11:59:51;99686.34;;;24.98;20.18
77739;BME280;66904;59.926;30.404;2023-03-11T12:21:42;99636.94;;;25.14;19.53
77739;BME280;66904;59.926;30.404;2023-03-11T12:32:38;99602.81;;;25.13;19.30
77739;BME280;66904;59.926;30.404;2023-03-11T12:48:57;99576.22;;;25.10;19.24
77739;BME280;66904;59.926;30.404;2023-03-11T12:54:34;99563.75;;;25.09;19.22
77739;BME280;66904;59.926;30.404;2023-03-11T13:26:40;99502.44;;;25.14;19.55
77739;BME280;66904;59.926;30.404;2023-03-11T13:42:32;99433.56;;;25.22;19.58
77739;BME280;66904;59.926;30.404;2023-03-11T13:47:35;99423.59;;;25.11;19.54
77739;BME280;66904;59.926;30.404;2023-03-11T13:52:48;99415.13;;;25.07;19.22
77739;BME280;66904;59.926;30.404;2023-03-11T13:57:54;99418.53;;;25.03;19.38
77739;BME280;66904;59.926;30.404;2023-03-11T14:03:01;99403.84;;;24.99;19.32
77739;BME280;66904;59.926;30.404;2023-03-11T14:08:22;99420.09;;;24.99;19.28
77739;BME280;66904;59.926;30.404;2023-03-11T14:13:27;99404.44;;;24.89;19.27
77739;BME280;66904;59.926;30.404;2023-03-11T14:18:35;99387.06;;;24.85;19.51
77739;BME280;66904;59.926;30.404;2023-03-11T14:23:41;99397.63;;;24.87;19.78
77739;BME280;66904;59.926;30.404;2023-03-11T14:28:44;99383.63;;;24.90;19.86
77739;BME280;66904;59.926;30.404;2023-03-11T14:34:00;99368.34;;;24.95;19.85
77739;BME280;66904;59.926;30.404;2023-03-11T14:44:22;99341.50;;;24.94;19.93
77739;BME280;66904;59.926;30.404;2023-03-11T14:49:25;99314.69;;;24.92;19.68
77739;BME280;66904;59.926;30.404;2023-03-11T14:54:28;99307.03;;;24.89;20.15
77739;BME280;66904;59.926;30.404;2023-03-11T14:59:33;99288.59;;;24.86;20.04
77739;BME280;66904;59.926;30.404;2023-03-11T15:04:36;99278.25;;;24.83;19.94
77739;BME280;66904;59.926;30.404;2023-03-11T15:09:39;99258.09;;;24.79;20.15
77739;BME280;66904;59.926;30.404;2023-03-11T15:14:50;99238.13;;;24.80;20.36
77739;BME280;66904;59.926;30.404;2023-03-11T15:19:50;99228.72;;;24.83;20.56
77739;BME280;66904;59.926;30.404;2023-03-11T15:24:53;99209.56;;;24.84;20.91
77739;BME280;66904;59.926;30.404;2023-03-11T15:29:54;99199.56;;;24.85;20.78
77739;BME280;66904;59.926;30.404;2023-03-11T15:40:25;99185.06;;;24.79;21.12
77739;BME280;66904;59.926;30.404;2023-03-11T15:45:38;99149.75;;;24.69;20.65
77739;BME280;66904;59.926;30.404;2023-03-11T15:51:04;99156.97;;;24.80;21.17
77739;BME280;66904;59.926;30.404;2023-03-11T15:56:11;99150.03;;;24.84;20.91
77739;BME280;66904;59.926;30.404;2023-03-11T16:01:22;99143.31;;;24.87;20.91
77739;BME280;66904;59.926;30.404;2023-03-11T16:06:37;99136.84;;;24.88;21.22
77739;BME280;66904;59.926;30.404;2023-03-11T16:11:38;99120.84;;;24.86;21.05
77739;BME280;66904;59.926;30.404;2023-03-11T16:16:39;99105.94;;;24.84;21.17
77739;BME280;66904;59.926;30.404;2023-03-11T16:21:45;99088.38;;;24.86;20.72
77739;BME280;66904;59.926;30.404;2023-03-11T16:26:49;99064.34;;;24.90;21.44
77739;BME280;66904;59.926;30.404;2023-03-11T16:31:51;99065.69;;;24.87;21.83
77739;BME280;66904;59.926;30.404;2023-03-11T16:36:58;99053.53;;;24.90;22.35
77739;BME280;66904;59.926;30.404;2023-03-11T16:41:58;99044.31;;;24.86;22.31
77739;BME280;66904;59.926;30.404;2023-03-11T16:46:59;99025.03;;;24.82;22.11
77739;BME280;66904;59.926;30.404;2023-03-11T16:51:59;99015.25;;;24.81;22.58
77739;BME280;66904;59.926;30.404;2023-03-11T16:57:00;99000.69;;;24.82;22.60
77739;BME280;66904;59.926;30.404;2023-03-11T17:02:02;98988.88;;;24.88;23.19
77739;BME280;66904;59.926;30.404;2023-03-11T17:07:04;98978.75;;;25.00;23.18
77739;BME280;66904;59.926;30.404;2023-03-11T17:12:16;98970.09;;;25.20;23.50
77739;BME280;66904;59.926;30.404;2023-03-11T17:17:33;98965.22;;;25.39;23.84
77739;BME280;66904;59.926;30.404;2023-03-11T17:22:46;98965.09;;;25.50;22.64
77739;BME280;66904;59.926;30.404;2023-03-11T17:27:46;98958.47;;;25.63;22.84
77739;BME280;66904;59.926;30.404;2023-03-11T17:32:47;98941.56;;;25.78;22.81
77739;BME280;66904;59.926;30.404;2023-03-11T17:37:48;98937.63;;;25.90;22.90
77739;BME280;66904;59.926;30.404;2023-03-11T17:42:48;98933.38;;;25.99;23.09
77739;BME280;66904;59.926;30.404;2023-03-11T17:47:50;98915.94;;;26.17;23.03
77739;BME280;66904;59.926;30.404;2023-03-11T17:52:50;98897.59;;;26.29;23.44
77739;BME280;66904;59.926;30.404;2023-03-11T17:57:55;98899.03;;;26.37;23.65
77739;BME280;66904;59.926;30.404;2023-03-11T18:02:56;98883.78;;;26.31;23.54
77739;BME280;66904;59.926;30.404;2023-03-11T18:07:56;98872.06;;;26.20;23.58
77739;BME280;66904;59.926;30.404;2023-03-11T18:12:57;98882.53;;;26.11;23.47
77739;BME280;66904;59.926;30.404;2023-03-11T18:17:58;98851.25;;;25.99;23.72
77739;BME280;66904;59.926;30.404;2023-03-11T18:22:58;98850.47;;;26.03;23.53
77739;BME280;66904;59.926;30.404;2023-03-11T18:27:59;98850.47;;;26.03;23.83
77739;BME280;66904;59.926;30.404;2023-03-11T18:33:01;98842.59;;;26.02;23.64
77739;BME280;66904;59.926;30.404;2023-03-11T18:38:01;98840.47;;;26.04;23.61
77739;BME280;66904;59.926;30.404;2023-03-11T18:43:02;98837.69;;;25.99;23.43
77739;BME280;66904;59.926;30.404;2023-03-11T18:48:02;98819.47;;;25.89;23.34
77739;BME280;66904;59.926;30.404;2023-03-11T18:53:04;98817.50;;;25.80;23.22
77739;BME280;66904;59.926;30.404;2023-03-11T18:58:04;98803.88;;;25.69;23.35
77739;BME280;66904;59.926;30.404;2023-03-11T19:03:09;98797.53;;;25.59;23.10
77739;BME280;66904;59.926;30.404;2023-03-11T19:08:10;98800.22;;;25.54;23.01
77739;BME280;66904;59.926;30.404;2023-03-11T19:13:11;98796.13;;;25.51;22.80
77739;BME280;66904;59.926;30.404;2023-03-11T19:18:12;98781.78;;;25.51;22.89
77739;BME280;66904;59.926;30.404;2023-03-11T19:23:13;98774.72;;;25.50;23.16
77739;BME280;66904;59.926;30.404;2023-03-11T19:28:13;98769.25;;;25.45;23.99
77739;BME280;66904;59.926;30.404;2023-03-11T19:33:14;98764.47;;;25.52;24.52
77739;BME280;66904;59.926;30.404;2023-03-11T19:38:14;98763.13;;;25.54;24.63
77739;BME280;66904;59.926;30.404;2023-03-11T19:43:15;98754.25;;;25.64;24.92
77739;BME280;66904;59.926;30.404;2023-03-11T19:48:17;98744.03;;;25.71;25.83
77739;BME280;66904;59.926;30.404;2023-03-11T19:53:20;98740.28;;;25.77;26.26
77739;BME280;66904;59.926;30.404;2023-03-11T19:58:22;98734.34;;;25.80;24.92
77739;BME280;66904;59.926;30.404;2023-03-11T20:03:24;98719.50;;;25.51;24.08
77739;BME280;66904;59.926;30.404;2023-03-11T20:08:25;98710.97;;;25.10;23.56
77739;BME280;66904;59.926;30.404;2023-03-11T20:13:25;98698.59;;;24.88;23.42
77739;BME280;66904;59.926;30.404;2023-03-11T20:18:26;98688.00;;;24.86;23.20
77739;BME280;66904;59.926;30.404;2023-03-11T20:23:26;98680.00;;;24.96;22.84
77739;BME280;66904;59.926;30.404;2023-03-11T20:28:27;98677.66;;;25.05;23.06
77739;BME280;66904;59.926;30.404;2023-03-11T20:33:27;98675.03;;;25.15;22.73
77739;BME280;66904;59.926;30.404;2023-03-11T20:38:28;98663.13;;;25.16;22.53
77739;BME280;66904;59.926;30.404;2023-03-11T20:43:28;98661.28;;;25.22;22.53
77739;BME280;66904;59.926;30.404;2023-03-11T20:48:29;98648.81;;;25.20;22.73
77739;BME280;66904;59.926;30.404;2023-03-11T20:53:30;98638.59;;;25.28;22.99
77739;BME280;66904;59.926;30.404;2023-03-11T20:58:49;98642.38;;;25.27;23.89
77739;BME280;66904;59.926;30.404;2023-03-11T21:04:09;98632.91;;;25.29;23.27
77739;BME280;66904;59.926;30.404;2023-03-11T21:09:11;98617.53;;;25.35;24.45
77739;BME280;66904;59.926;30.404;2023-03-11T21:14:16;98603.78;;;25.41;24.96
77739;BME280;66904;59.926;30.404;2023-03-11T21:19:17;98605.75;;;25.51;23.96
77739;BME280;66904;59.926;30.404;2023-03-11T21:24:20;98600.66;;;25.59;24.13
77739;BME280;66904;59.926;30.404;2023-03-11T21:29:30;98596.66;;;25.67;25.07
77739;BME280;66904;59.926;30.404;2023-03-11T21:34:56;98586.63;;;25.73;25.06
77739;BME280;66904;59.926;30.404;2023-03-11T21:40:14;98594.47;;;25.69;24.04
77739;BME280;66904;59.926;30.404;2023-03-11T21:45:15;98591.47;;;25.65;23.75
77739;BME280;66904;59.926;30.404;2023-03-11T21:50:16;98583.28;;;25.55;23.74
77739;BME280;66904;59.926;30.404;2023-03-11T21:55:17;98570.78;;;25.49;23.67
77739;BME280;66904;59.926;30.404;2023-03-11T22:00:23;98563.16;;;25.41;23.82
77739;BME280;66904;59.926;30.404;2023-03-11T22:05:32;98560.13;;;25.33;23.54
77739;BME280;66904;59.926;30.404;2023-03-11T22:10:33;98552.50;;;25.25;23.15
77739;BME280;66904;59.926;30.404;2023-03-11T22:15:34;98548.69;;;25.20;23.30
77739;BME280;66904;59.926;30.404;2023-03-11T22:20:34;98549.22;;;25.17;23.40
77739;BME280;66904;59.926;30.404;2023-03-11T22:25:35;98543.03;;;25.22;23.47
77739;BME280;66904;59.926;30.404;2023-03-11T22:30:35;98538.44;;;25.28;23.38
77739;BME280;66904;59.926;30.404;2023-03-11T22:35:36;98524.38;;;25.31;23.48
77739;BME280;66904;59.926;30.404;2023-03-11T22:40:36;98528.47;;;25.33;23.54
77739;BME280;66904;59.926;30.404;2023-03-11T22:51:05;98529.28;;;25.34;23.33
77739;BME280;66904;59.926;30.404;2023-03-11T22:56:08;98518.44;;;25.34;24.00
77739;BME280;66904;59.926;30.404;2023-03-11T23:01:46;98511.44;;;25.38;24.12
77739;BME280;66904;59.926;30.404;2023-03-11T23:07:02;98515.75;;;25.34;23.62
77739;BME280;66904;59.926;30.404;2023-03-11T23:12:02;98508.69;;;25.33;23.88
77739;BME280;66904;59.926;30.404;2023-03-11T23:17:06;98506.81;;;25.33;23.87
77739;BME280;66904;59.926;30.404;2023-03-11T23:27:47;98494.91;;;25.34;23.55
77739;BME280;66904;59.926;30.404;2023-03-11T23:32:50;98485.44;;;25.32;23.73
77739;BME280;66904;59.926;30.404;2023-03-11T23:38:24;98480.31;;;25.35;24.04
77739;BME280;66904;59.926;30.404;2023-03-11T23:43:25;98479.47;;;25.35;23.33
77739;BME280;66904;59.926;30.404;2023-03-11T23:48:41;98477.59;;;25.35;23.79
77739;BME280;66904;59.926;30.404;2023-03-11T23:54:12;98460.00;;;25.38;23.73
77739;BME280;66904;59.926;30.404;2023-03-11T23:59:56;98449.44;;;25.36;23.71
